Time;durP1;ratioP1;P1;durP2;ratioP2;P2;SDS_P1;SDS_P2;PMS_P1;PMS_P2;Temp;Humidity;BMP_temperature;BMP_pressure;BME280_temperature;BME280_humidity;BME280_pressure;Samples;Min_cycle;Max_cycle;Signal;HPM_P1;HPM_P2
2022/10/04 00:04:51;;;;;;;9.25;3.58;;;;;;;9.61;95.04;102132.22;10336199;28;20046;-80
2022/10/04 00:09:53;;;;;;;7.95;3.10;;;;;;;9.60;95.11;102135.66;10355546;28;20053;-80
2022/10/04 00:14:58;;;;;;;11.65;3.30;;;;;;;9.57;95.43;102151.22;10357398;28;20468;-80
2022/10/04 00:20:03;;;;;;;11.15;3.38;;;;;;;9.64;95.16;102136.69;10335960;28;20056;-83
2022/10/04 00:25:08;;;;;;;10.65;3.60;;;;;;;9.65;95.30;102134.16;10359149;28;20050;-80
2022/10/04 00:30:15;;;;;;;12.38;3.67;;;;;;;9.66;95.50;102128.06;10324405;28;20069;-80
2022/10/04 00:35:26;;;;;;;13.20;3.67;;;;;;;9.66;95.49;102130.69;10344147;28;20062;-79
2022/10/04 00:40:41;;;;;;;10.32;3.22;;;;;;;9.70;95.51;102122.13;10357249;28;20510;-79
2022/10/04 00:45:57;;;;;;;8.48;3.22;;;;;;;9.77;95.56;102125.88;10360002;28;20074;-80
2022/10/04 00:51:06;;;;;;;8.80;2.67;;;;;;;9.81;95.73;102124.31;10355497;28;20065;-80
2022/10/04 00:56:27;;;;;;;10.95;2.90;;;;;;;9.80;95.62;102110.31;10357413;28;20065;-80
2022/10/04 01:01:34;;;;;;;10.05;3.17;;;;;;;9.86;95.79;102113.22;10357391;28;20050;-81
2022/10/04 01:06:36;;;;;;;8.68;3.55;;;;;;;9.88;95.76;102110.66;10340770;28;20053;-80
2022/10/04 01:11:43;;;;;;;15.68;2.63;;;;;;;9.89;95.75;102104.56;10337059;28;20145;-80
2022/10/04 01:16:50;;;;;;;9.02;3.20;;;;;;;9.88;95.69;102085.38;10339393;28;20054;-80
2022/10/04 01:22:13;;;;;;;13.13;4.18;;;;;;;9.90;95.92;102078.47;10361504;28;20054;-80
2022/10/04 01:27:44;;;;;;;7.93;3.13;;;;;;;9.89;95.76;102075.81;10340901;28;20060;-80
2022/10/04 01:32:46;;;;;;;9.43;2.88;;;;;;;9.90;95.86;102067.13;10342509;28;20050;-81
2022/10/04 01:37:47;;;;;;;8.35;2.90;;;;;;;9.93;95.94;102064.63;10366992;28;20034;-81
2022/10/04 01:42:55;;;;;;;8.13;3.08;;;;;;;9.96;95.62;102061.25;10344143;28;20038;-78
2022/10/04 01:48:04;;;;;;;8.02;2.78;;;;;;;9.98;95.85;102054.34;10342292;28;20049;-78
2022/10/04 01:53:10;;;;;;;9.10;3.10;;;;;;;9.98;95.73;102055.22;10348068;28;20112;-80
2022/10/04 01:58:19;;;;;;;9.95;3.20;;;;;;;9.98;95.65;102052.63;10362650;28;20454;-80
2022/10/04 02:03:29;;;;;;;9.02;3.22;;;;;;;9.99;95.81;102041.31;10369626;28;20046;-80
2022/10/04 02:08:36;;;;;;;8.55;3.03;;;;;;;9.98;95.88;102022.94;10372083;28;20056;-80
2022/10/04 02:13:39;;;;;;;;;;;;;;;9.96;95.69;102035.97;10364800;28;20100;-80
2022/10/04 02:18:43;;;;;;;7.00;3.07;;;;;;;9.97;95.81;102026.38;10366163;28;19969;-80
2022/10/04 02:23:46;;;;;;;9.63;3.50;;;;;;;9.94;95.65;102019.34;10347970;28;20052;-80
2022/10/04 02:28:48;;;;;;;8.63;3.55;;;;;;;9.92;95.91;102018.34;10366858;28;20088;-80
2022/10/04 02:33:52;;;;;;;8.25;3.63;;;;;;;9.88;95.74;102012.13;10370638;28;20141;-80
2022/10/04 02:38:59;;;;;;;14.05;4.03;;;;;;;9.84;95.55;102011.94;10366021;28;20136;-80
2022/10/04 02:44:14;;;;;;;10.43;3.60;;;;;;;9.78;95.69;102014.31;10365588;28;20060;-80
2022/10/04 02:49:33;;;;;;;12.23;4.05;;;;;;;9.69;95.71;102005.25;10365345;28;20061;-80
2022/10/04 02:54:41;;;;;;;9.65;4.10;;;;;;;9.63;95.61;102012.88;10364447;28;20042;-81
2022/10/04 02:59:43;;;;;;;11.17;4.00;;;;;;;9.62;95.65;102015.41;10349204;28;20050;-80
2022/10/04 03:04:45;;;;;;;9.70;4.22;;;;;;;9.62;95.44;102007.56;10361823;28;20572;-80
2022/10/04 03:09:47;;;;;;;11.52;4.80;;;;;;;9.65;95.88;102008.59;10366459;28;20060;-81
2022/10/04 03:14:54;;;;;;;11.95;4.20;;;;;;;9.62;95.70;102011.06;10328580;28;20073;-80
2022/10/04 03:19:56;;;;;;;9.73;3.85;;;;;;;9.62;95.86;102008.44;10347453;28;20067;-80
2022/10/04 03:25:00;;;;;;;16.38;4.85;;;;;;;9.65;95.83;101982.47;10329718;28;20065;-81
2022/10/04 03:30:03;;;;;;;11.55;4.68;;;;;;;9.69;95.85;101976.50;10342699;28;20049;-81
2022/10/04 03:35:11;;;;;;;16.17;4.97;;;;;;;9.71;96.17;101951.31;10347304;28;20050;-81
2022/10/04 03:40:14;;;;;;;15.35;4.57;;;;;;;9.69;96.38;101957.31;10348806;28;20548;-80
2022/10/04 03:45:18;;;;;;;10.18;4.45;;;;;;;9.65;96.25;101956.31;10344769;28;20050;-81
2022/10/04 03:50:33;;;;;;;14.77;5.32;;;;;;;9.68;96.38;101956.41;10346996;28;20104;-79
2022/10/04 03:55:44;;;;;;;22.85;5.60;;;;;;;9.68;96.44;101974.72;10354440;28;20041;-79
2022/10/04 04:01:19;;;;;;;9.43;4.82;;;;;;;9.65;96.53;101973.69;10338093;28;20072;-79
2022/10/04 04:06:24;;;;;;;11.48;4.60;;;;;;;9.65;96.55;101977.22;10296521;28;20065;-79
2022/10/04 04:11:26;;;;;;;11.52;5.20;;;;;;;9.66;96.57;101973.75;10345195;28;20077;-80
2022/10/04 04:16:29;;;;;;;11.80;5.13;;;;;;;9.67;96.63;101977.28;10343792;28;20050;-80
2022/10/04 04:21:32;;;;;;;13.82;5.07;;;;;;;9.65;96.67;101973.69;10328935;28;20514;-80
2022/10/04 04:26:38;;;;;;;15.25;5.38;;;;;;;9.60;96.65;101973.50;10361625;28;20145;-80
2022/10/04 04:31:45;;;;;;;10.18;4.78;;;;;;;9.58;96.75;101969.03;10361843;28;20061;-80
2022/10/04 04:36:47;;;;;;;12.35;5.28;;;;;;;9.53;96.68;101966.25;10362054;28;20054;-80
2022/10/04 04:41:50;;;;;;;10.02;5.50;;;;;;;9.47;96.76;101961.69;10364362;28;20061;-80
2022/10/04 04:46:55;;;;;;;11.73;4.68;;;;;;;9.38;96.66;101946.53;10361124;28;20061;-80
2022/10/04 04:51:57;;;;;;;14.23;5.45;;;;;;;9.31;96.91;101948.81;10361260;28;20137;-80
2022/10/04 04:56:59;;;;;;;13.45;5.65;;;;;;;9.27;96.98;101946.91;10362001;28;20074;-80
2022/10/04 05:02:02;;;;;;;14.45;6.13;;;;;;;9.20;96.94;101950.97;10363539;28;20064;-81
2022/10/04 05:07:14;;;;;;;10.75;5.53;;;;;;;9.15;96.62;101953.41;10345979;28;20050;-80
2022/10/04 05:12:20;;;;;;;10.65;5.82;;;;;;;9.08;96.68;101945.25;10370703;28;20056;-81
2022/10/04 05:17:25;;;;;;;13.35;5.40;;;;;;;9.05;96.95;101943.38;10366712;28;20535;-81
2022/10/04 05:22:29;;;;;;;13.88;5.35;;;;;;;9.04;96.88;101946.84;10366663;28;20050;-81
2022/10/04 05:27:36;;;;;;;14.55;6.20;;;;;;;8.91;96.67;101942.81;10364332;28;20062;-81
2022/10/04 05:32:59;;;;;;;15.00;5.60;;;;;;;8.81;96.60;101940.63;10368112;28;20643;-79
2022/10/04 05:38:09;;;;;;;16.58;6.20;;;;;;;8.78;96.47;101945.72;10365526;28;20089;-81
2022/10/04 05:43:21;;;;;;;;;;;;;;;8.72;96.59;101940.25;10350918;28;20046;-81
2022/10/04 05:48:24;;;;;;;9.65;5.10;;;;;;;8.69;96.59;101929.66;10363251;28;20659;-81
2022/10/04 05:53:28;;;;;;;15.18;6.15;;;;;;;8.62;96.55;101938.97;10365032;28;20122;-81
2022/10/04 05:58:39;;;;;;;13.23;6.15;;;;;;;8.61;96.47;101939.78;10365925;28;20784;-81
2022/10/04 06:03:46;;;;;;;13.18;6.78;;;;;;;8.67;96.53;101938.31;10365782;28;20113;-81
2022/10/04 06:09:18;;;;;;;16.40;6.32;;;;;;;8.88;96.63;101941.81;10350628;28;20133;-81
2022/10/04 06:14:29;;;;;;;17.60;7.50;;;;;;;9.05;96.73;101939.88;10370685;28;20054;-81
2022/10/04 06:19:54;;;;;;;14.10;7.05;;;;;;;9.27;96.94;101941.69;10358610;28;20516;-80
2022/10/04 06:24:59;;;;;;;24.23;6.93;;;;;;;9.42;96.85;101944.91;10356615;28;20310;-80
2022/10/04 06:30:14;;;;;;;17.88;7.22;;;;;;;9.55;97.02;101949.81;10345248;28;20056;-80
2022/10/04 06:35:34;;;;;;;17.50;7.68;;;;;;;9.70;97.09;101944.28;10342553;28;20118;-80
2022/10/04 06:40:53;;;;;;;17.85;7.65;;;;;;;9.88;96.98;101944.09;10358962;28;20058;-80
2022/10/04 06:46:00;;;;;;;13.30;6.57;;;;;;;10.06;96.87;101943.91;10353882;28;20058;-80
2022/10/04 06:51:35;;;;;;;15.32;6.70;;;;;;;10.20;96.66;101943.53;10353344;28;20137;-80
2022/10/04 06:57:17;;;;;;;13.52;6.95;;;;;;;10.34;96.40;101934.47;10338040;28;20111;-81
2022/10/04 07:02:45;;;;;;;19.02;7.82;;;;;;;10.44;96.19;101936.59;10345136;28;20531;-80
2022/10/04 07:08:05;;;;;;;18.65;7.43;;;;;;;10.54;95.86;101940.47;10307881;28;20057;-82
2022/10/04 07:13:18;;;;;;;14.13;6.85;;;;;;;10.79;95.23;101947.47;10364998;28;20164;-82
2022/10/04 07:18:26;;;;;;;13.00;6.03;;;;;;;11.23;94.87;101951.50;10352195;28;20141;-81
2022/10/04 07:23:35;;;;;;;16.15;7.75;;;;;;;13.93;93.81;101954.59;10360374;28;20437;-81
2022/10/04 07:34:10;;;;;;;14.27;6.25;;;;;;;15.70;89.50;101943.75;10362136;28;20044;-81
2022/10/04 07:39:29;;;;;;;20.55;4.97;;;;;;;15.28;77.79;101931.69;10340224;28;20046;-78
2022/10/04 07:44:38;;;;;;;13.60;4.72;;;;;;;13.39;79.82;101942.84;10336721;28;20125;-80
2022/10/04 07:49:40;;;;;;;12.52;4.20;;;;;;;12.61;81.61;101930.28;10352971;28;20100;-79
2022/10/04 07:55:18;;;;;;;15.07;4.90;;;;;;;12.37;83.33;101944.53;10354384;28;20045;-79
2022/10/04 08:00:37;;;;;;;16.70;5.15;;;;;;;12.21;84.53;101937.94;10356771;28;20065;-79
2022/10/04 08:05:51;;;;;;;14.30;5.18;;;;;;;12.08;85.00;101948.94;10354361;28;20054;-79
2022/10/04 08:11:11;;;;;;;15.32;4.85;;;;;;;12.04;85.69;101942.72;10355558;28;20078;-79
2022/10/04 08:16:36;;;;;;;10.00;4.43;;;;;;;12.83;86.10;101940.50;10350108;28;20097;-80
2022/10/04 08:21:54;;;;;;;17.00;4.70;;;;;;;14.30;84.76;101931.63;10347345;28;20104;-79
2022/10/04 08:27:28;;;;;;;11.00;4.88;;;;;;;15.29;81.89;101941.34;10330892;28;20054;-79
2022/10/04 08:32:54;;;;;;;13.35;3.97;;;;;;;15.80;79.66;101925.41;10324697;28;20052;-79
2022/10/04 08:38:15;;;;;;;12.88;4.38;;;;;;;16.54;77.55;101913.06;10354498;28;20050;-79
2022/10/04 08:43:42;;;;;;;12.82;4.15;;;;;;;16.38;75.28;101914.69;10324540;28;20041;-79
2022/10/04 08:49:08;;;;;;;10.20;3.00;;;;;;;16.91;74.95;101910.81;10350285;28;20046;-80
2022/10/04 08:54:48;;;;;;;12.82;2.80;;;;;;;17.12;72.67;101905.69;10337869;28;20081;-79
2022/10/04 09:00:12;;;;;;;9.05;2.78;;;;;;;17.18;71.77;101899.56;10364804;28;20056;-79
2022/10/04 09:05:20;;;;;;;10.25;2.72;;;;;;;17.24;70.80;101902.25;10365834;28;20054;-80
2022/10/04 09:10:44;;;;;;;12.13;3.50;;;;;;;17.79;70.12;101898.16;10362243;28;20530;-79
2022/10/04 09:15:52;;;;;;;9.75;2.78;;;;;;;17.68;68.89;101927.25;10340301;28;20314;-79
2022/10/04 09:21:11;;;;;;;9.40;3.03;;;;;;;17.87;68.00;101920.28;10333949;28;20069;-80
2022/10/04 09:26:58;;;;;;;8.35;3.13;;;;;;;17.51;67.24;101913.91;10346430;28;20105;-80
2022/10/04 09:32:27;;;;;;;11.90;3.28;;;;;;;17.72;67.93;101905.22;10307946;28;20124;-79
2022/10/04 09:37:50;;;;;;;12.55;3.25;;;;;;;18.09;67.25;101894.81;10372847;28;20050;-81
2022/10/04 09:43:17;;;;;;;12.98;3.28;;;;;;;18.17;66.29;101895.72;10374435;28;20116;-80
2022/10/04 09:48:28;;;;;;;6.63;2.63;;;;;;;18.23;65.21;101888.69;10362623;28;20699;-81
2022/10/04 09:53:51;;;;;;;8.13;2.47;;;;;;;18.46;64.94;101899.31;10364154;28;20061;-81
2022/10/04 09:59:21;;;;;;;13.05;2.95;;;;;;;18.30;64.62;101885.13;10336741;28;20567;-81
2022/10/04 10:04:29;;;;;;;6.22;2.28;;;;;;;18.02;64.37;101874.47;10349516;28;20487;-78
2022/10/04 10:15:54;;;;;;;7.03;2.20;;;;;;;17.76;63.67;101877.88;10363432;28;20073;-80
2022/10/04 10:21:14;;;;;;;8.23;2.22;;;;;;;17.19;64.50;101887.22;10374057;28;20123;-80
2022/10/04 10:26:24;;;;;;;13.45;2.67;;;;;;;17.80;65.31;101873.44;10340240;28;20050;-80
2022/10/04 10:31:50;;;;;;;12.02;2.65;;;;;;;17.88;64.37;101870.84;10372947;28;20485;-79
2022/10/04 10:37:07;;;;;;;11.25;3.00;;;;;;;17.72;64.33;101865.47;10361034;28;20100;-79
2022/10/04 10:42:34;;;;;;;7.60;2.60;;;;;;;17.85;63.94;101869.94;10365014;28;20045;-79
2022/10/04 10:48:08;;;;;;;8.43;2.28;;;;;;;18.22;63.96;101871.00;10367748;28;20081;-80
2022/10/04 10:53:30;;;;;;;6.55;2.35;;;;;;;17.79;63.18;101877.88;10369702;28;20046;-80
2022/10/04 10:59:00;;;;;;;7.93;2.35;;;;;;;17.85;63.02;101866.44;10373952;28;20050;-78
2022/10/04 11:04:16;;;;;;;;;;;;;;;17.51;63.21;101849.50;10361114;28;20477;-80
2022/10/04 11:09:41;;;;;;;6.57;2.35;;;;;;;17.55;63.48;101853.91;10368933;28;20700;-80
2022/10/04 11:14:48;;;;;;;8.25;2.47;;;;;;;17.52;63.82;101856.53;10384182;28;20640;-81
2022/10/04 11:20:23;;;;;;;7.18;2.20;;;;;;;17.68;63.56;101837.19;10345497;28;20081;-78
2022/10/04 11:25:43;;;;;;;8.73;2.50;;;;;;;17.70;63.64;101830.16;10351143;28;20049;-82
2022/10/04 11:30:57;;;;;;;9.30;2.60;;;;;;;17.73;63.52;101822.22;10364778;28;20050;-81
2022/10/04 11:36:36;;;;;;;9.73;2.10;;;;;;;17.80;63.38;101802.81;10335762;28;20077;-82
2022/10/04 11:41:50;;;;;;;9.13;2.80;;;;;;;17.90;63.13;101803.75;10379566;28;20049;-82
2022/10/04 11:47:21;;;;;;;5.93;2.10;;;;;;;17.86;63.07;101807.25;10332381;28;20057;-82
2022/10/04 11:52:44;;;;;;;6.35;2.00;;;;;;;18.05;63.09;101812.66;10321893;28;20053;-81
2022/10/04 11:58:24;;;;;;;6.72;2.08;;;;;;;18.06;62.75;101799.41;10315192;28;20108;-83
2022/10/04 12:03:56;;;;;;;9.30;2.95;;;;;;;17.88;62.42;101797.56;10339867;28;20042;-83
2022/10/04 12:09:30;;;;;;;4.75;1.80;;;;;;;17.91;62.41;101802.00;10349643;28;20072;-84
2022/10/04 12:15:07;;;;;;;5.20;1.95;;;;;;;17.87;62.46;101786.97;10351433;28;20077;-83
2022/10/04 12:20:47;;;;;;;6.68;1.90;;;;;;;17.93;62.44;101781.69;10344222;28;20064;-86
2022/10/04 12:26:06;;;;;;;8.40;2.30;;;;;;;17.98;62.48;101782.59;10322280;28;20050;-83
2022/10/04 12:31:23;;;;;;;7.32;2.00;;;;;;;18.23;62.19;101777.34;10373030;28;20058;-84
2022/10/04 12:36:25;;;;;;;7.40;2.17;;;;;;;18.06;61.93;101770.25;10355248;28;20129;-84
2022/10/04 12:41:44;;;;;;;3.10;1.50;;;;;;;18.02;62.24;101748.13;10327353;28;20141;-85
2022/10/04 12:46:55;;;;;;;6.10;1.70;;;;;;;18.16;61.84;101761.41;10350086;28;20046;-84
2022/10/04 12:52:17;;;;;;;8.07;2.30;;;;;;;17.92;62.21;101753.44;10322614;28;20401;-83
2022/10/04 12:57:55;;;;;;;7.20;2.47;;;;;;;17.81;62.31;101743.66;10356878;28;20052;-82
2022/10/04 13:03:01;;;;;;;8.45;2.10;;;;;;;17.87;62.79;101736.63;10336689;28;20050;-84
2022/10/04 13:08:51;;;;;;;7.47;1.98;;;;;;;17.77;62.24;101736.56;10353562;28;20073;-83
2022/10/04 13:14:05;;;;;;;6.20;1.88;;;;;;;17.95;62.59;101724.28;10333622;28;20050;-83
2022/10/04 13:19:19;;;;;;;5.13;1.75;;;;;;;18.17;62.52;101720.78;10359070;28;20049;-83
2022/10/04 13:25:01;;;;;;;8.50;2.05;;;;;;;18.14;62.17;101722.56;10359877;28;20042;-85
2022/10/04 13:30:26;;;;;;;4.30;1.75;;;;;;;18.43;61.89;101714.56;10372225;28;20073;-84
2022/10/04 13:35:49;;;;;;;5.65;2.13;;;;;;;18.33;61.59;101707.50;10363958;28;20057;-85
2022/10/04 13:41:02;;;;;;;15.27;2.67;;;;;;;18.34;61.64;101690.72;10387829;28;20058;-83
2022/10/04 13:46:17;;;;;;;3.83;1.70;;;;;;;18.05;60.84;101693.41;10378430;28;20106;-86
2022/10/04 13:51:34;;;;;;;11.70;2.72;;;;;;;17.93;60.92;101700.44;10370535;28;20057;-84
2022/10/04 13:56:50;;;;;;;6.80;1.85;;;;;;;17.76;60.38;101692.44;10376825;28;20052;-84
2022/10/04 14:02:12;;;;;;;5.55;1.88;;;;;;;17.84;60.55;101701.28;10361213;28;20420;-85
2022/10/04 14:07:51;;;;;;;8.57;2.00;;;;;;;17.81;60.87;101703.91;10372255;28;20042;-83
2022/10/04 14:13:31;;;;;;;3.87;1.80;;;;;;;17.61;60.96;101708.28;10365483;28;20042;-83
2022/10/04 14:19:11;;;;;;;7.88;2.50;;;;;;;17.61;61.31;101706.53;10347762;28;20124;-84
2022/10/04 14:24:34;;;;;;;6.75;2.00;;;;;;;17.57;61.36;101695.94;10364735;28;20922;-83
2022/10/04 14:29:50;;;;;;;6.28;1.90;;;;;;;17.51;61.43;101667.66;10365677;28;20109;-84
2022/10/04 14:35:06;;;;;;;4.75;2.30;;;;;;;17.33;61.67;101670.28;10349479;28;20871;-83
2022/10/04 14:40:30;;;;;;;7.25;2.10;;;;;;;17.29;62.11;101664.97;10348560;28;20050;-82
2022/10/04 14:45:57;;;;;;;6.57;1.80;;;;;;;17.14;61.92;101659.59;10358235;28;20054;-81
2022/10/04 14:51:14;;;;;;;10.45;1.92;;;;;;;17.14;62.26;101657.88;10334602;28;20077;-82
2022/10/04 14:56:45;;;;;;;7.60;2.25;;;;;;;17.07;62.67;101647.22;10348987;28;20050;-83
2022/10/04 15:01:59;;;;;;;7.70;1.88;;;;;;;17.13;62.62;101658.72;10344293;28;20334;-84
2022/10/04 15:07:16;;;;;;;5.80;1.92;;;;;;;17.07;62.56;101665.75;10349078;28;20697;-83
2022/10/04 15:12:38;;;;;;;6.35;1.80;;;;;;;17.12;62.59;101669.31;10326084;28;20055;-83
2022/10/04 15:18:10;;;;;;;6.63;1.88;;;;;;;17.06;62.63;101662.22;10305851;28;20072;-82
2022/10/04 15:23:12;;;;;;;8.23;1.98;;;;;;;17.03;62.50;101663.97;10333173;28;20042;-82
2022/10/04 15:28:35;;;;;;;6.15;2.05;;;;;;;16.96;62.80;101661.31;10320913;28;20061;-84
2022/10/04 15:33:56;;;;;;;3.42;1.73;;;;;;;16.81;63.10;101665.59;10335060;28;20045;-83
2022/10/04 15:39:06;;;;;;;9.68;2.28;;;;;;;16.63;63.81;101648.75;10349871;28;20042;-84
2022/10/04 15:44:12;;;;;;;6.80;2.03;;;;;;;16.47;63.97;101663.66;10351706;28;20518;-85
2022/10/04 15:49:24;;;;;;;6.35;1.70;;;;;;;16.39;64.50;101663.59;10325653;28;20127;-85
2022/10/04 15:55:18;;;;;;;8.85;1.90;;;;;;;16.25;65.01;101647.63;10354289;28;20493;-87
2022/10/04 16:00:21;;;;;;;10.23;2.03;;;;;;;16.17;65.36;101651.06;10344905;28;20502;-87
2022/10/04 16:05:38;;;;;;;6.45;2.13;;;;;;;16.07;65.98;101651.00;10325124;28;20057;-85
2022/10/04 16:11:08;;;;;;;6.88;1.90;;;;;;;15.87;66.44;101639.41;10354068;28;20145;-85
2022/10/04 16:16:14;;;;;;;8.73;2.03;;;;;;;15.74;66.52;101646.28;10354951;28;20436;-85
2022/10/04 16:21:29;;;;;;;4.82;2.00;;;;;;;15.61;67.05;101655.81;10370295;28;20434;-84
2022/10/04 16:26:32;;;;;;;6.80;2.20;;;;;;;15.57;67.65;101659.34;10327465;28;20383;-85
2022/10/04 16:31:41;;;;;;;5.80;2.20;;;;;;;15.28;68.14;101646.72;10348539;28;20045;-85
2022/10/04 16:37:17;;;;;;;6.68;2.40;;;;;;;15.13;68.60;101635.97;10332971;28;20387;-84
2022/10/04 16:42:26;;;;;;;6.93;1.98;;;;;;;15.03;68.78;101635.84;10339422;28;20081;-84
2022/10/04 16:47:33;;;;;;;8.85;2.33;;;;;;;14.91;69.46;101622.53;10368777;28;20053;-84
2022/10/04 16:52:52;;;;;;;7.78;2.67;;;;;;;14.73;69.96;101623.16;10369700;28;20108;-85
2022/10/04 16:58:26;;;;;;;8.82;2.53;;;;;;;14.58;70.33;101625.56;10368184;28;20100;-84
2022/10/04 17:03:35;;;;;;;11.50;2.80;;;;;;;14.42;71.01;101629.72;10328354;28;20137;-85
2022/10/04 17:08:41;;;;;;;7.68;2.50;;;;;;;14.23;71.43;101637.38;10364975;28;20048;-85
2022/10/04 17:13:47;;;;;;;7.88;3.05;;;;;;;14.05;72.13;101639.69;10358452;28;20069;-84
2022/10/04 17:19:17;;;;;;;8.05;2.55;;;;;;;13.83;72.95;101636.69;10374748;28;20085;-85
2022/10/04 17:24:32;;;;;;;10.20;3.53;;;;;;;13.63;73.64;101632.81;10369003;28;20041;-84
2022/10/04 17:29:34;;;;;;;8.63;3.38;;;;;;;13.49;74.27;101633.44;10375069;28;20057;-84
2022/10/04 17:34:55;;;;;;;9.48;3.15;;;;;;;13.36;74.94;101636.72;10340408;28;20073;-85
2022/10/04 17:40:12;;;;;;;10.50;3.28;;;;;;;13.27;75.53;101638.28;10351164;28;22728;-85
2022/10/04 17:45:46;;;;;;;10.23;3.70;;;;;;;13.14;76.10;101645.91;10333659;28;20132;-87
2022/10/04 17:56:50;;;;;;;9.15;3.47;;;;;;;12.77;77.19;101648.63;10344575;28;20054;-88
2022/10/04 18:02:22;;;;;;;12.02;3.65;;;;;;;12.62;77.79;101648.31;10343610;28;20054;-86
2022/10/04 18:07:30;;;;;;;13.53;4.43;;;;;;;12.50;78.21;101647.16;10333718;28;20061;-87
2022/10/04 18:12:37;;;;;;;9.73;4.53;;;;;;;12.43;78.79;101628.59;10333541;28;20042;-88
2022/10/04 18:17:42;;;;;;;13.27;3.40;;;;;;;12.43;79.40;101613.75;10321267;28;20053;-90
2022/10/04 18:22:54;;;;;;;10.68;4.18;;;;;;;12.41;79.80;101604.03;10316865;28;20433;-86
2022/10/04 18:28:05;;;;;;;12.63;3.90;;;;;;;12.39;80.02;101609.28;10336348;28;20054;-86
2022/10/04 18:33:14;;;;;;;16.13;4.32;;;;;;;12.36;80.45;101602.19;10291909;28;20227;-87
2022/10/04 18:38:29;;;;;;;10.60;4.05;;;;;;;12.39;80.58;101617.16;10309070;28;20085;-89
2022/10/04 18:43:39;;;;;;;13.32;4.40;;;;;;;12.40;80.54;101660.03;10328330;28;20414;-88
2022/10/04 18:49:14;;;;;;;10.73;4.22;;;;;;;12.30;80.73;101659.84;10319529;28;20050;-87
2022/10/04 18:54:35;;;;;;;9.37;4.20;;;;;;;12.18;81.00;101662.16;10312624;28;20521;-87
2022/10/04 19:05:51;;;;;;;13.10;4.28;;;;;;;12.04;81.51;101646.09;10284380;28;20053;-87
2022/10/04 19:11:16;;;;;;;11.55;4.32;;;;;;;12.07;81.97;101640.91;10345874;28;20410;-89
2022/10/04 19:16:47;;;;;;;9.40;4.30;;;;;;;12.08;82.27;101624.28;10322160;28;20065;-87
2022/10/04 19:21:58;;;;;;;12.57;4.95;;;;;;;12.10;82.28;101619.97;10329799;28;20537;-86
2022/10/04 19:27:04;;;;;;;;;;;;;;;12.12;82.30;101614.75;10335875;28;20117;-91
2022/10/04 19:32:30;;;;;;;19.27;5.25;;;;;;;12.17;82.17;101611.41;10323736;28;20377;-86
2022/10/04 19:37:59;;;;;;;10.45;4.40;;;;;;;12.22;81.86;101605.34;10314030;28;20042;-89
2022/10/04 19:43:16;;;;;;;9.77;4.30;;;;;;;12.24;81.54;101630.81;10330014;28;20050;-86
2022/10/04 19:48:24;;;;;;;8.82;4.20;;;;;;;12.24;81.48;101648.31;10336470;28;20042;-88
2022/10/04 19:53:33;;;;;;;18.25;5.30;;;;;;;12.30;81.36;101637.94;10323965;28;20038;-87
2022/10/04 19:59:39;;;;;;;10.40;4.40;;;;;;;12.45;81.14;101630.41;10321487;28;20038;-86
2022/10/04 20:04:51;;;;;;;8.05;3.50;;;;;;;12.52;81.01;101627.09;10315458;28;20177;-85
2022/10/04 20:10:21;;;;;;;12.95;4.50;;;;;;;12.67;80.44;101618.66;10346385;28;20057;-87
2022/10/04 20:15:26;;;;;;;13.68;5.57;;;;;;;12.73;80.00;101573.22;10345845;28;20946;-87
2022/10/04 20:20:37;;;;;;;9.90;4.40;;;;;;;12.65;79.66;101562.53;10315375;28;20261;-88
2022/10/04 20:25:42;;;;;;;12.93;5.00;;;;;;;12.61;79.61;101557.19;10361786;28;20137;-90
2022/10/04 20:31:08;;;;;;;10.82;4.82;;;;;;;12.59;79.45;101566.78;10334744;28;20088;-87
2022/10/04 20:36:18;;;;;;;12.02;4.05;;;;;;;12.61;79.58;101560.72;10326494;28;20052;-89
2022/10/04 20:46:53;;;;;;;15.35;4.50;;;;;;;12.80;79.23;101566.34;10329740;28;20046;-88
2022/10/04 20:51:55;;;;;;;9.85;4.00;;;;;;;12.93;78.90;101573.63;10320647;28;20045;-87
2022/10/04 20:56:58;;;;;;;13.45;4.30;;;;;;;13.07;78.69;101576.53;10350190;28;20795;-86
2022/10/04 21:02:05;;;;;;;13.65;4.35;;;;;;;13.09;78.40;101580.09;10334144;28;20050;-87
2022/10/04 21:07:16;;;;;;;15.77;3.90;;;;;;;13.17;78.01;101582.84;10318077;28;20046;-86
2022/10/04 21:12:38;;;;;;;13.55;4.32;;;;;;;13.24;77.64;101577.75;10314799;28;20104;-87
2022/10/04 21:17:40;;;;;;;12.05;4.60;;;;;;;13.24;77.41;101575.09;10329419;28;20046;-89
2022/10/04 21:22:43;;;;;;;10.10;3.55;;;;;;;13.31;77.09;101580.47;10327698;28;20049;-87
2022/10/04 21:27:45;;;;;;;10.93;4.15;;;;;;;13.31;76.97;101575.22;10314155;28;20085;-86
2022/10/04 21:32:48;;;;;;;18.77;4.70;;;;;;;13.39;76.82;101584.16;10328243;28;20210;-89
2022/10/04 21:37:50;;;;;;;9.38;3.58;;;;;;;13.39;76.87;101578.88;10310813;28;20061;-88
2022/10/04 21:42:52;;;;;;;11.65;4.40;;;;;;;13.39;76.64;101581.53;10352022;28;20549;-89
2022/10/04 21:47:56;;;;;;;10.13;4.28;;;;;;;13.39;76.54;101587.69;10337451;28;20521;-87
2022/10/04 21:53:02;;;;;;;9.52;3.92;;;;;;;13.36;76.58;101584.09;10316363;28;20065;-89
2022/10/04 21:58:04;;;;;;;13.63;4.30;;;;;;;13.36;76.70;101579.75;10333395;28;20136;-88
2022/10/04 22:03:06;;;;;;;8.43;3.55;;;;;;;13.41;76.49;101564.91;10338430;28;20050;-86
2022/10/04 22:08:07;;;;;;;9.27;3.78;;;;;;;13.43;76.55;101564.94;10307020;28;20065;-89
2022/10/04 22:13:09;;;;;;;11.52;3.83;;;;;;;13.45;76.28;101560.63;10354153;28;20437;-88
2022/10/04 22:18:12;;;;;;;12.77;4.68;;;;;;;13.49;76.48;101558.91;10338768;28;20050;-88
2022/10/04 22:23:18;;;;;;;9.30;3.58;;;;;;;13.50;76.48;101550.16;10332906;28;20128;-91
2022/10/04 22:28:28;;;;;;;8.85;3.88;;;;;;;13.55;76.41;101554.63;10308678;28;20132;-86
2022/10/04 22:33:39;;;;;;;11.15;4.05;;;;;;;13.55;76.28;101553.75;10334719;28;20544;-86
2022/10/04 22:38:56;;;;;;;14.20;4.47;;;;;;;13.58;76.33;101549.41;10331984;28;20579;-87
2022/10/04 22:44:10;;;;;;;11.15;3.88;;;;;;;13.61;76.27;101544.19;10319126;28;20087;-87
2022/10/04 22:49:15;;;;;;;12.85;4.13;;;;;;;13.66;76.26;101533.78;10327929;28;20189;-87
2022/10/04 22:54:27;;;;;;;10.38;3.88;;;;;;;13.71;76.51;101541.75;10337382;28;20137;-89
2022/10/04 22:59:38;;;;;;;9.30;4.07;;;;;;;13.72;76.32;101531.25;10326478;28;20335;-87
2022/10/04 23:04:44;;;;;;;10.52;4.13;;;;;;;13.79;76.27;101537.47;10347082;28;20088;-88
2022/10/04 23:09:46;;;;;;;7.53;3.50;;;;;;;13.87;76.10;101538.50;10332086;28;20046;-87
2022/10/04 23:14:48;;;;;;;11.20;4.75;;;;;;;13.88;76.10;101531.47;10325833;28;20060;-88
2022/10/04 23:19:59;;;;;;;9.63;3.83;;;;;;;13.85;76.10;101516.50;10319908;28;20569;-87
2022/10/04 23:25:17;;;;;;;12.32;4.38;;;;;;;13.87;76.17;101530.59;10349729;28;20046;-88
2022/10/04 23:30:21;;;;;;;15.93;4.93;;;;;;;13.87;76.08;101516.53;10314892;28;20140;-88
2022/10/04 23:35:28;;;;;;;9.02;3.65;;;;;;;13.85;76.33;101521.78;10335704;28;20050;-88
2022/10/04 23:40:30;;;;;;;14.25;4.25;;;;;;;13.85;76.42;101508.59;10333018;28;20054;-87
2022/10/04 23:45:34;;;;;;;9.60;4.35;;;;;;;13.84;76.54;101513.84;10357370;28;20429;-88
2022/10/04 23:50:37;;;;;;;10.63;3.92;;;;;;;13.79;76.61;101512.03;10340382;28;20050;-87
2022/10/04 23:55:41;;;;;;;9.35;3.60;;;;;;;13.77;76.77;101502.34;10344484;28;20124;-87
